Terminal Aerodrome Forecast
Issued by NWS Lake Charles, LA

Home | Current Version | Previous Version | Text Only | Print | Product List | Glossary On
Versions: 1 2 3 4 5 6 7 8 9 10 11 12 13 14 15
137
FTUS44 KLCH 161132
TAFLFT
TAF
KLFT 161132Z 1612/1712 VRB03KT P6SM FEW015 OVC250
     FM161500 20008KT P6SM VCTS FEW018CB SCT025 BKN035
      TEMPO 1616/1620 VRB15G28KT 2SM +TSRA BKN015CB OVC030
     FM162000 20009KT P6SM VCSH FEW025 SCT035 OVC050
     FM170100 VRB03KT P6SM FEW050 BKN250=

USA.gov is the U.S. government's official web portal to all federal, state and local government web resources and services.